createdAt,value
2023-03-13T00:00:22.780Z,15.77
2023-03-13T00:02:50.322Z,11.65
2023-03-13T00:05:16.923Z,9.57
2023-03-13T00:07:43.394Z,8.32
2023-03-13T00:10:10.063Z,8.80
2023-03-13T00:12:36.417Z,8.88
2023-03-13T00:15:02.847Z,9.43
2023-03-13T00:17:33.362Z,11.10
2023-03-13T00:20:02.647Z,9.20
2023-03-13T00:22:29.013Z,12.75
2023-03-13T00:24:58.859Z,12.15
2023-03-13T00:27:25.223Z,12.05
2023-03-13T00:29:51.651Z,36.65
2023-03-13T00:32:18.027Z,17.17
2023-03-13T00:34:44.625Z,14.07
2023-03-13T00:37:11.000Z,44.33
2023-03-13T00:39:37.371Z,28.80
2023-03-13T00:42:04.336Z,13.18
2023-03-13T00:44:30.776Z,8.55
2023-03-13T00:46:57.406Z,41.35
2023-03-13T00:49:23.741Z,42.58
2023-03-13T00:51:50.164Z,23.92
2023-03-13T00:54:18.923Z,24.38
2023-03-13T00:56:45.298Z,18.92
2023-03-13T00:59:11.632Z,12.70
2023-03-13T01:01:38.075Z,7.18
2023-03-13T01:04:11.742Z,7.07
2023-03-13T01:06:40.796Z,8.30
2023-03-13T01:09:07.729Z,15.55
2023-03-13T01:11:35.508Z,12.20
2023-03-13T01:14:03.403Z,13.50
2023-03-13T01:16:31.010Z,23.23
2023-03-13T01:18:59.602Z,15.82
2023-03-13T01:21:26.744Z,9.93
2023-03-13T01:23:53.651Z,11.80
2023-03-13T01:26:21.076Z,16.40
2023-03-13T01:28:47.631Z,21.80
2023-03-13T01:31:15.002Z,11.90
2023-03-13T01:33:41.602Z,10.48
2023-03-13T01:36:09.047Z,13.77
2023-03-13T01:38:35.711Z,22.13
2023-03-13T01:41:02.490Z,23.38
2023-03-13T01:43:30.267Z,16.00
2023-03-13T01:46:16.393Z,12.30
2023-03-13T01:48:42.818Z,14.55
2023-03-13T01:51:11.800Z,11.98
2023-03-13T01:53:41.355Z,12.32
2023-03-13T01:56:10.042Z,15.85
2023-03-13T01:58:36.690Z,28.05
2023-03-13T02:01:03.800Z,19.98
2023-03-13T02:03:30.478Z,16.55
2023-03-13T02:05:57.774Z,14.70
2023-03-13T02:08:25.819Z,14.00
2023-03-13T02:11:18.452Z,7.70
2023-03-13T02:13:44.914Z,40.33
2023-03-13T02:16:11.495Z,20.75
2023-03-13T02:18:38.350Z,8.20
2023-03-13T02:21:10.068Z,7.03
2023-03-13T02:23:42.228Z,6.53
2023-03-13T02:26:09.074Z,10.00
2023-03-13T02:28:39.038Z,8.15
2023-03-13T02:31:06.052Z,5.80
2023-03-13T02:33:35.268Z,8.05
2023-03-13T02:36:05.246Z,10.18
2023-03-13T02:38:33.010Z,10.35
2023-03-13T02:41:00.675Z,9.60
2023-03-13T02:43:31.546Z,25.42
2023-03-13T02:46:09.013Z,16.70
2023-03-13T02:48:41.915Z,9.35
2023-03-13T02:51:20.304Z,4.15
2023-03-13T02:53:47.585Z,8.40
2023-03-13T02:56:17.335Z,6.95
2023-03-13T02:58:51.613Z,10.63
2023-03-13T03:01:18.064Z,10.13
2023-03-13T03:03:44.572Z,5.30
2023-03-13T03:06:11.034Z,5.20
2023-03-13T03:08:41.325Z,4.28
2023-03-13T03:11:07.773Z,4.40
2023-03-13T03:13:34.172Z,3.33
2023-03-13T03:16:07.645Z,2.80
2023-03-13T03:18:34.747Z,3.47
2023-03-13T03:21:01.157Z,3.40
2023-03-13T03:23:27.657Z,3.20
2023-03-13T03:25:53.992Z,3.70
2023-03-13T03:28:20.334Z,4.90
2023-03-13T03:30:46.682Z,4.00
2023-03-13T03:33:13.051Z,3.40
2023-03-13T03:35:40.786Z,3.28
2023-03-13T03:38:07.171Z,2.85
2023-03-13T03:40:33.610Z,3.22
2023-03-13T03:43:00.037Z,3.05
2023-03-13T03:45:26.469Z,2.78
2023-03-13T03:47:52.827Z,2.80
2023-03-13T03:50:19.169Z,3.10
2023-03-13T03:52:45.523Z,2.88
2023-03-13T03:55:11.974Z,3.85
2023-03-13T03:57:38.421Z,3.60
2023-03-13T04:00:06.018Z,3.15
2023-03-13T04:02:32.411Z,3.15
2023-03-13T04:04:58.779Z,3.25
2023-03-13T04:07:26.217Z,3.40
2023-03-13T04:09:52.571Z,3.53
2023-03-13T04:12:18.920Z,3.17
2023-03-13T04:14:47.649Z,3.28
2023-03-13T04:17:14.142Z,3.30
2023-03-13T04:19:40.580Z,3.17
2023-03-13T04:22:07.048Z,3.40
2023-03-13T04:24:33.500Z,3.28
2023-03-13T04:27:03.664Z,3.70
2023-03-13T04:29:30.017Z,2.80
2023-03-13T04:31:58.739Z,2.50
2023-03-13T04:34:25.112Z,3.45
2023-03-13T04:36:51.564Z,3.17
2023-03-13T04:39:17.925Z,2.92
2023-03-13T04:41:44.292Z,2.80
2023-03-13T04:44:10.759Z,2.55
2023-03-13T04:46:37.264Z,2.63
2023-03-13T04:49:03.612Z,2.70
2023-03-13T04:51:30.237Z,2.67
2023-03-13T04:53:56.605Z,2.67
2023-03-13T04:56:41.219Z,2.67
2023-03-13T04:59:09.559Z,2.95
2023-03-13T05:01:38.452Z,2.53
2023-03-13T05:04:05.121Z,2.50
2023-03-13T05:06:31.515Z,3.03
2023-03-13T05:08:57.912Z,2.65
2023-03-13T05:11:24.455Z,2.60
2023-03-13T05:13:50.954Z,2.70
2023-03-13T05:16:17.495Z,2.40
2023-03-13T05:18:46.354Z,2.47
2023-03-13T05:21:12.680Z,2.58
2023-03-13T05:23:39.049Z,2.28
2023-03-13T05:26:05.518Z,2.28
2023-03-13T05:28:31.955Z,2.53
2023-03-13T05:30:58.349Z,2.78
2023-03-13T05:33:25.005Z,2.53
2023-03-13T05:35:51.411Z,2.60
2023-03-13T05:38:18.332Z,2.28
2023-03-13T05:40:44.703Z,2.30
2023-03-13T05:43:11.116Z,2.45
2023-03-13T05:45:37.579Z,2.80
2023-03-13T05:48:04.117Z,2.50
2023-03-13T05:50:30.572Z,3.60
2023-03-13T05:52:56.971Z,9.50
2023-03-13T05:55:23.380Z,4.60
2023-03-13T05:57:49.862Z,4.10
2023-03-13T06:00:17.704Z,3.28
2023-03-13T06:02:46.733Z,3.28
2023-03-13T06:05:13.101Z,3.00
2023-03-13T06:07:39.473Z,2.65
2023-03-13T06:10:06.056Z,2.80
2023-03-13T06:12:32.809Z,3.20
2023-03-13T06:14:59.175Z,3.80
2023-03-13T06:17:25.635Z,6.00
2023-03-13T06:19:52.098Z,3.28
2023-03-13T06:22:19.067Z,3.20
2023-03-13T06:24:46.837Z,7.20
2023-03-13T06:27:13.330Z,8.40
2023-03-13T06:29:39.746Z,10.00
2023-03-13T06:32:06.621Z,10.35
2023-03-13T06:34:33.238Z,6.15
2023-03-13T06:37:00.528Z,6.80
2023-03-13T06:39:26.989Z,6.47
2023-03-13T06:41:53.396Z,13.98
2023-03-13T06:44:19.785Z,11.90
2023-03-13T06:46:46.198Z,8.75
2023-03-13T06:49:12.986Z,9.02
2023-03-13T06:51:39.361Z,10.07
2023-03-13T06:54:05.797Z,11.60
2023-03-13T06:56:32.352Z,13.48
2023-03-13T06:58:59.955Z,19.67
2023-03-13T07:01:26.699Z,17.45
2023-03-13T07:03:53.352Z,10.48
2023-03-13T07:06:19.970Z,9.55
2023-03-13T07:08:46.347Z,9.45
2023-03-13T07:11:18.197Z,5.32
2023-03-13T07:13:44.619Z,4.18
2023-03-13T07:16:15.124Z,4.47
2023-03-13T07:18:47.403Z,4.25
2023-03-13T07:21:14.110Z,4.18
2023-03-13T07:23:40.544Z,4.03
2023-03-13T07:26:08.012Z,4.60
2023-03-13T07:28:37.305Z,4.28
2023-03-13T07:31:05.565Z,3.75
2023-03-13T07:33:32.410Z,4.80
2023-03-13T07:35:58.819Z,5.38
2023-03-13T07:38:25.246Z,5.63
2023-03-13T07:40:53.052Z,5.43
2023-03-13T07:43:19.794Z,6.22
2023-03-13T07:45:58.911Z,5.55
2023-03-13T07:48:27.969Z,5.90
2023-03-13T07:50:55.013Z,6.07
2023-03-13T07:53:21.750Z,6.47
2023-03-13T07:55:56.410Z,6.72
2023-03-13T07:58:24.342Z,6.35
2023-03-13T08:00:50.935Z,7.53
2023-03-13T08:03:17.459Z,6.63
2023-03-13T08:05:43.926Z,8.38
2023-03-13T08:08:10.413Z,8.50
2023-03-13T08:10:36.941Z,9.68
2023-03-13T08:13:03.372Z,8.70
2023-03-13T08:15:29.799Z,8.20
2023-03-13T08:17:56.713Z,5.22
2023-03-13T08:20:23.427Z,4.57
2023-03-13T08:22:52.876Z,4.30
2023-03-13T08:25:19.440Z,3.72
2023-03-13T08:27:45.806Z,2.20
2023-03-13T08:30:12.494Z,2.33
2023-03-13T08:32:38.930Z,3.83
2023-03-13T08:35:05.474Z,3.03
2023-03-13T08:37:31.827Z,2.60
2023-03-13T08:39:58.181Z,2.40
2023-03-13T08:42:24.604Z,2.58
2023-03-13T08:44:50.948Z,2.90
2023-03-13T08:47:18.275Z,3.10
2023-03-13T08:49:44.968Z,3.25
2023-03-13T08:52:11.447Z,3.13
2023-03-13T08:54:37.859Z,3.00
2023-03-13T08:57:04.240Z,3.15
2023-03-13T08:59:30.726Z,2.72
2023-03-13T09:01:57.224Z,3.10
2023-03-13T09:04:23.580Z,2.88
2023-03-13T09:06:50.017Z,2.67
2023-03-13T09:09:16.487Z,2.35
2023-03-13T09:11:42.909Z,2.03
2023-03-13T09:14:10.157Z,1.90
2023-03-13T09:16:36.829Z,1.90
2023-03-13T09:19:03.297Z,1.60
2023-03-13T09:21:31.342Z,1.58
2023-03-13T09:23:58.316Z,2.10
2023-03-13T09:26:25.287Z,1.80
2023-03-13T09:28:54.053Z,2.53
2023-03-13T09:31:21.694Z,2.80
2023-03-13T09:33:48.714Z,3.80
2023-03-13T09:36:15.161Z,3.35
2023-03-13T09:38:41.581Z,3.47
2023-03-13T09:41:17.155Z,4.82
2023-03-13T09:44:01.890Z,4.30
2023-03-13T09:46:33.863Z,2.80
2023-03-13T09:49:02.457Z,3.08
2023-03-13T09:51:36.605Z,3.58
2023-03-13T09:54:15.171Z,3.33
2023-03-13T09:56:53.220Z,3.40
2023-03-13T09:59:22.559Z,3.05
2023-03-13T10:01:52.434Z,2.20
2023-03-13T10:04:18.818Z,1.85
2023-03-13T10:06:46.102Z,1.58
2023-03-13T10:09:17.650Z,1.75
2023-03-13T10:12:08.219Z,2.35
2023-03-13T10:14:34.596Z,2.55
2023-03-13T10:17:07.220Z,2.78
2023-03-13T10:19:37.731Z,1.98
2023-03-13T10:22:18.493Z,2.00
2023-03-13T10:24:44.869Z,1.60
2023-03-13T10:27:11.594Z,1.98
2023-03-13T10:29:38.734Z,1.40
2023-03-13T10:32:05.994Z,1.65
2023-03-13T10:34:51.405Z,1.45
2023-03-13T10:37:21.234Z,1.23
2023-03-13T10:39:48.856Z,1.20
2023-03-13T10:42:27.918Z,1.33
2023-03-13T10:45:01.612Z,1.48
2023-03-13T10:47:32.526Z,1.02
2023-03-13T10:49:59.280Z,1.20
2023-03-13T10:52:29.932Z,1.20
2023-03-13T10:55:00.096Z,1.30
2023-03-13T10:57:30.667Z,0.93
2023-03-13T10:59:58.124Z,0.88
2023-03-13T11:02:35.621Z,0.90
2023-03-13T11:05:07.170Z,0.90
2023-03-13T11:07:35.136Z,0.80
2023-03-13T11:10:07.797Z,0.90
2023-03-13T11:12:35.073Z,0.68
2023-03-13T11:15:02.062Z,0.80
2023-03-13T11:17:28.559Z,0.82
2023-03-13T11:20:02.643Z,0.70
2023-03-13T11:22:40.621Z,0.80
2023-03-13T11:25:20.730Z,1.00
2023-03-13T11:27:59.626Z,1.00
2023-03-13T11:30:44.960Z,0.98
2023-03-13T11:33:18.152Z,0.70
2023-03-13T11:35:54.751Z,0.80
2023-03-13T11:38:36.657Z,0.60
2023-03-13T11:41:03.000Z,0.60
2023-03-13T11:43:30.415Z,0.80
2023-03-13T11:46:21.660Z,0.80
2023-03-13T11:49:08.476Z,0.90
2023-03-13T11:51:53.532Z,0.90
2023-03-13T11:54:38.756Z,1.00
2023-03-13T11:57:07.207Z,0.75
2023-03-13T11:59:44.124Z,0.90
2023-03-13T12:02:25.891Z,0.90
2023-03-13T12:04:57.515Z,0.55
2023-03-13T12:07:28.417Z,0.60
2023-03-13T12:10:00.184Z,0.50
2023-03-13T12:12:33.832Z,0.60
2023-03-13T12:15:06.206Z,0.50
2023-03-13T12:17:39.044Z,0.50
2023-03-13T12:20:13.639Z,0.60
2023-03-13T12:22:46.423Z,0.50
2023-03-13T12:25:24.670Z,0.55
2023-03-13T12:27:52.897Z,0.70
2023-03-13T12:30:24.500Z,0.40
2023-03-13T12:33:09.802Z,0.70
2023-03-13T12:35:37.720Z,0.60
2023-03-13T12:38:15.208Z,0.65
2023-03-13T12:40:45.111Z,0.57
2023-03-13T12:43:23.348Z,0.65
2023-03-13T12:46:12.443Z,0.50
2023-03-13T12:48:57.640Z,0.32
2023-03-13T12:51:42.879Z,0.70
2023-03-13T12:54:18.536Z,0.40
2023-03-13T12:57:03.829Z,0.77
2023-03-13T12:59:36.832Z,0.60
2023-03-13T13:02:13.140Z,0.47
2023-03-13T13:04:44.892Z,0.60
2023-03-13T13:07:23.629Z,0.63
2023-03-13T13:10:02.343Z,0.70
2023-03-13T13:12:28.997Z,0.60
2023-03-13T13:14:57.988Z,0.60
2023-03-13T13:17:30.575Z,0.60
2023-03-13T13:19:57.341Z,0.50
2023-03-13T13:22:39.125Z,0.70
2023-03-13T13:25:11.634Z,0.68
2023-03-13T13:27:38.018Z,0.70
2023-03-13T13:30:24.360Z,0.65
2023-03-13T13:32:51.982Z,0.93
2023-03-13T13:35:23.373Z,0.77
2023-03-13T13:37:49.973Z,0.60
2023-03-13T13:40:16.418Z,0.80
2023-03-13T13:42:52.956Z,0.70
2023-03-13T13:45:20.440Z,0.80
2023-03-13T13:47:48.153Z,1.17
2023-03-13T13:50:17.786Z,1.00
2023-03-13T13:52:46.545Z,0.98
2023-03-13T13:55:21.980Z,0.80
2023-03-13T13:57:49.713Z,0.70
2023-03-13T14:00:25.011Z,0.82
2023-03-13T14:02:52.953Z,0.80
2023-03-13T14:05:24.565Z,0.40
2023-03-13T14:08:09.481Z,0.70
2023-03-13T14:10:38.010Z,0.47
2023-03-13T14:13:13.981Z,0.45
2023-03-13T14:15:44.973Z,0.50
2023-03-13T14:18:23.696Z,0.50
2023-03-13T14:20:50.025Z,0.50
2023-03-13T14:23:28.274Z,0.47
2023-03-13T14:25:54.644Z,0.40
2023-03-13T14:28:22.991Z,0.50
2023-03-13T14:30:51.263Z,0.60
2023-03-13T14:33:18.228Z,0.60
2023-03-13T14:35:45.226Z,0.70
2023-03-13T14:38:16.356Z,0.40
2023-03-13T14:40:42.743Z,0.70
2023-03-13T14:43:18.550Z,0.47
2023-03-13T14:45:45.234Z,0.52
2023-03-13T14:48:22.844Z,0.70
2023-03-13T14:50:50.374Z,0.40
2023-03-13T14:53:18.009Z,0.70
2023-03-13T14:55:44.662Z,0.77
2023-03-13T14:58:20.174Z,0.60
2023-03-13T15:00:48.234Z,0.45
2023-03-13T15:03:18.818Z,0.60
2023-03-13T15:06:04.173Z,0.60
2023-03-13T15:08:30.697Z,0.63
2023-03-13T15:10:57.396Z,0.77
2023-03-13T15:13:25.293Z,0.60
2023-03-13T15:15:52.354Z,0.50
2023-03-13T15:18:20.269Z,0.50
2023-03-13T15:20:57.295Z,0.40
2023-03-13T15:23:26.234Z,0.60
2023-03-13T15:25:52.632Z,0.60
2023-03-13T15:28:20.629Z,0.40
2023-03-13T15:30:47.840Z,0.45
2023-03-13T15:33:15.335Z,0.60
2023-03-13T15:35:42.182Z,0.60
2023-03-13T15:38:16.134Z,0.47
2023-03-13T15:40:45.406Z,0.45
2023-03-13T15:43:12.342Z,0.40
2023-03-13T15:45:40.462Z,0.63
2023-03-13T15:48:27.811Z,0.65
2023-03-13T15:50:58.920Z,0.68
2023-03-13T15:53:26.710Z,2.35
2023-03-13T15:55:54.523Z,2.33
2023-03-13T15:58:20.973Z,1.00
2023-03-13T16:00:48.363Z,1.05
2023-03-13T16:03:19.733Z,0.60
2023-03-13T16:05:49.338Z,0.70
2023-03-13T16:08:29.219Z,0.80
2023-03-13T16:11:00.535Z,0.80
2023-03-13T16:13:26.993Z,0.70
2023-03-13T16:15:53.438Z,0.60
2023-03-13T16:18:21.197Z,1.75
2023-03-13T16:20:48.183Z,4.95
2023-03-13T16:23:14.837Z,1.98
2023-03-13T16:25:41.241Z,2.40
2023-03-13T16:28:07.688Z,2.15
2023-03-13T16:30:34.651Z,1.75
2023-03-13T16:33:01.106Z,1.00
2023-03-13T16:35:28.263Z,0.88
2023-03-13T16:37:55.694Z,0.93
2023-03-13T16:40:24.408Z,1.02
2023-03-13T16:42:53.367Z,0.90
2023-03-13T16:45:19.980Z,0.60
2023-03-13T16:47:46.845Z,0.90
2023-03-13T16:50:31.790Z,0.80
2023-03-13T16:52:58.204Z,0.90
2023-03-13T16:55:36.980Z,1.05
2023-03-13T16:58:04.126Z,0.90
2023-03-13T17:00:31.187Z,0.80
2023-03-13T17:02:58.233Z,32.13
2023-03-13T17:05:25.221Z,4.47
2023-03-13T17:07:51.980Z,18.05
2023-03-13T17:10:25.855Z,37.38
2023-03-13T17:12:52.547Z,23.10
2023-03-13T17:15:20.149Z,7.10
2023-03-13T17:17:51.645Z,5.50
2023-03-13T17:20:19.951Z,7.15
2023-03-13T17:22:46.414Z,9.23
2023-03-13T17:25:13.305Z,8.40
2023-03-13T17:27:40.286Z,2.90
2023-03-13T17:30:16.877Z,1.70
2023-03-13T17:32:43.309Z,2.20
2023-03-13T17:35:10.494Z,2.85
2023-03-13T17:37:37.003Z,2.30
2023-03-13T17:40:09.137Z,1.30
2023-03-13T17:42:35.599Z,1.40
2023-03-13T17:45:02.027Z,1.00
2023-03-13T17:47:28.481Z,3.55
2023-03-13T17:49:54.932Z,3.58
2023-03-13T17:52:21.362Z,2.15
2023-03-13T17:54:47.732Z,1.27
2023-03-13T17:57:18.690Z,1.50
2023-03-13T17:59:45.755Z,1.45
2023-03-13T18:02:13.327Z,1.50
2023-03-13T18:04:40.319Z,2.20
2023-03-13T18:07:15.983Z,2.30
2023-03-13T18:09:42.427Z,1.75
2023-03-13T18:12:09.903Z,2.55
2023-03-13T18:14:39.675Z,2.40
2023-03-13T18:17:14.350Z,3.17
2023-03-13T18:19:42.934Z,2.80
2023-03-13T18:22:13.491Z,3.35
2023-03-13T18:24:39.870Z,4.05
2023-03-13T18:27:10.516Z,3.10
2023-03-13T18:29:39.305Z,3.20
2023-03-13T18:32:05.770Z,6.55
2023-03-13T18:34:32.263Z,4.43
2023-03-13T18:37:03.543Z,2.45
2023-03-13T18:39:30.914Z,2.08
2023-03-13T18:41:57.438Z,2.22
2023-03-13T18:44:23.913Z,2.17
2023-03-13T18:46:52.127Z,2.00
2023-03-13T18:49:21.651Z,1.80
2023-03-13T18:51:50.950Z,2.03
2023-03-13T18:54:17.748Z,1.85
2023-03-13T18:56:44.788Z,1.90
2023-03-13T18:59:16.552Z,1.80
2023-03-13T19:01:42.930Z,2.40
2023-03-13T19:04:09.350Z,2.45
2023-03-13T19:06:36.716Z,2.63
2023-03-13T19:09:17.358Z,2.80
2023-03-13T19:11:53.096Z,3.70
2023-03-13T19:14:19.491Z,3.22
2023-03-13T19:16:45.931Z,4.55
2023-03-13T19:19:15.547Z,4.07
2023-03-13T19:21:42.125Z,4.00
2023-03-13T19:24:08.744Z,4.22
2023-03-13T19:26:37.017Z,4.28
2023-03-13T19:29:04.248Z,4.32
2023-03-13T19:31:30.948Z,4.50
2023-03-13T19:33:57.478Z,5.43
2023-03-13T19:36:24.711Z,6.32
2023-03-13T19:38:53.702Z,6.43
2023-03-13T19:41:20.188Z,7.78
2023-03-13T19:43:49.059Z,6.65
2023-03-13T19:46:25.159Z,6.78
2023-03-13T19:48:52.612Z,7.18
2023-03-13T19:51:19.128Z,6.75
2023-03-13T19:53:45.528Z,5.38
2023-03-13T19:56:16.862Z,5.18
2023-03-13T19:58:44.005Z,4.75
2023-03-13T20:01:17.200Z,5.38
2023-03-13T20:06:18.216Z,6.85
2023-03-13T20:11:11.538Z,5.90
2023-03-13T20:13:38.256Z,5.60
2023-03-13T20:16:04.993Z,4.50
2023-03-13T20:18:31.493Z,4.10
2023-03-13T20:20:57.934Z,3.85
2023-03-13T20:23:24.360Z,3.60
2023-03-13T20:25:50.893Z,4.20
2023-03-13T20:28:17.347Z,4.18
2023-03-13T20:30:44.599Z,3.70
2023-03-13T20:33:12.040Z,3.53
2023-03-13T20:35:38.909Z,2.53
2023-03-13T20:38:06.110Z,2.78
2023-03-13T20:40:35.570Z,2.60
2023-03-13T20:43:02.143Z,2.55
2023-03-13T20:45:31.418Z,3.25
2023-03-13T20:47:58.753Z,4.20
2023-03-13T20:50:25.532Z,3.85
2023-03-13T20:52:51.981Z,3.45
2023-03-13T20:55:18.386Z,3.92
2023-03-13T20:57:47.306Z,3.28
2023-03-13T21:00:14.078Z,3.60
2023-03-13T21:02:40.585Z,3.70
2023-03-13T21:05:09.452Z,4.03
2023-03-13T21:07:35.885Z,4.15
2023-03-13T21:10:02.614Z,4.53
2023-03-13T21:12:29.230Z,5.15
2023-03-13T21:14:55.666Z,6.75
2023-03-13T21:17:22.060Z,11.35
2023-03-13T21:19:48.425Z,14.85
2023-03-13T21:22:14.809Z,15.80
2023-03-13T21:24:41.330Z,12.00
2023-03-13T21:27:07.665Z,10.18
2023-03-13T21:29:34.113Z,12.60
2023-03-13T21:32:00.478Z,14.20
2023-03-13T21:34:26.906Z,11.40
2023-03-13T21:36:53.256Z,10.18
2023-03-13T21:39:19.889Z,9.90
2023-03-13T21:41:48.487Z,10.27
2023-03-13T21:44:19.553Z,10.00
2023-03-13T21:46:46.435Z,9.77
2023-03-13T21:49:13.538Z,13.25
2023-03-13T21:51:40.052Z,36.78
2023-03-13T21:54:06.440Z,13.70
2023-03-13T21:56:32.803Z,7.75
2023-03-13T21:58:59.283Z,11.52
2023-03-13T22:01:25.632Z,8.27
2023-03-13T22:03:52.041Z,10.95
2023-03-13T22:06:19.892Z,11.82
2023-03-13T22:08:50.143Z,11.57
2023-03-13T22:11:16.945Z,9.10
2023-03-13T22:13:43.386Z,8.00
2023-03-13T22:16:12.817Z,6.80
2023-03-13T22:18:39.621Z,5.18
2023-03-13T22:21:06.599Z,4.20
2023-03-13T22:23:32.926Z,4.13
2023-03-13T22:25:59.747Z,5.15
2023-03-13T22:28:26.855Z,5.65
2023-03-13T22:30:53.258Z,5.47
2023-03-13T22:33:19.678Z,5.65
2023-03-13T22:35:50.090Z,6.15
2023-03-13T22:38:16.462Z,6.22
2023-03-13T22:40:42.843Z,6.10
2023-03-13T22:43:09.212Z,6.13
2023-03-13T22:45:36.339Z,6.50
2023-03-13T22:48:06.193Z,6.65
2023-03-13T22:50:33.685Z,4.78
2023-03-13T22:53:00.319Z,5.13
2023-03-13T22:55:26.681Z,6.22
2023-03-13T22:57:53.193Z,6.85
2023-03-13T23:00:20.140Z,7.72
2023-03-13T23:02:46.734Z,7.90
2023-03-13T23:05:13.082Z,8.23
2023-03-13T23:07:40.903Z,6.57
2023-03-13T23:10:07.970Z,8.25
2023-03-13T23:12:34.361Z,9.20
2023-03-13T23:15:01.995Z,7.90
2023-03-13T23:17:32.237Z,4.40
2023-03-13T23:20:01.151Z,4.10
2023-03-13T23:22:32.789Z,4.47
2023-03-13T23:24:59.208Z,4.68
2023-03-13T23:27:25.621Z,4.22
2023-03-13T23:29:53.051Z,4.70
2023-03-13T23:32:19.579Z,5.00
2023-03-13T23:34:45.946Z,4.32
2023-03-13T23:37:12.285Z,4.03
2023-03-13T23:39:38.659Z,4.72
2023-03-13T23:42:05.055Z,4.22
2023-03-13T23:44:31.580Z,3.90
2023-03-13T23:46:57.975Z,3.90
2023-03-13T23:49:24.456Z,4.07
2023-03-13T23:51:50.909Z,4.18
2023-03-13T23:54:17.344Z,4.65
2023-03-13T23:56:46.212Z,4.15
2023-03-13T23:59:12.626Z,4.05
